Time;durP1;ratioP1;P1;durP2;ratioP2;P2;SDS_P1;SDS_P2;PMS_P1;PMS_P2;Temp;Humidity;BMP_temperature;BMP_pressure;BME280_temperature;BME280_humidity;BME280_pressure;Samples;Min_cycle;Max_cycle;Signal;HPM_P1;HPM_P2
2024/01/13 00:01:16;;;;;;;5.35;4.40;;;;;;;-0.05;100.00;99380.63;15288288;19;20033;-49
2024/01/13 00:06:41;;;;;;;4.07;3.63;;;;;;;0.03;100.00;99371.47;15292475;19;20014;-49
2024/01/13 00:12:01;;;;;;;3.97;3.47;;;;;;;0.15;100.00;99361.16;15288401;19;20086;-47
2024/01/13 00:17:27;;;;;;;4.72;3.45;;;;;;;0.29;100.00;99363.13;15285620;19;20089;-48
2024/01/13 00:22:53;;;;;;;3.25;2.97;;;;;;;0.39;100.00;99349.47;15289440;19;20018;-49
2024/01/13 00:28:20;;;;;;;3.45;3.00;;;;;;;0.56;100.00;99341.53;15278277;19;20019;-48
2024/01/13 00:33:54;;;;;;;2.60;2.40;;;;;;;0.61;100.00;99334.22;15287695;19;20007;-51
2024/01/13 00:39:18;;;;;;;2.90;2.35;;;;;;;0.59;100.00;99328.13;15285631;19;20025;-50
2024/01/13 00:44:45;;;;;;;2.65;2.45;;;;;;;0.56;100.00;99316.84;15291493;19;20392;-51
2024/01/13 00:50:10;;;;;;;2.95;2.65;;;;;;;0.49;100.00;99315.41;15288667;19;20022;-48
2024/01/13 00:55:35;;;;;;;3.17;2.72;;;;;;;0.53;100.00;99327.59;15288589;19;20094;-47
2024/01/13 01:01:03;;;;;;;3.58;3.03;;;;;;;0.56;100.00;99312.38;15284977;19;20018;-49
2024/01/13 01:06:30;;;;;;;3.15;2.72;;;;;;;0.58;100.00;99302.56;15280429;19;20018;-49
2024/01/13 01:11:54;;;;;;;3.08;2.70;;;;;;;0.44;100.00;99297.06;15282064;19;20086;-50
2024/01/13 01:17:21;;;;;;;3.78;3.20;;;;;;;0.34;100.00;99290.50;15278360;19;20022;-49
2024/01/13 01:22:46;;;;;;;3.80;2.95;;;;;;;0.17;100.00;99294.84;15029937;19;5001099;-48
2024/01/13 01:28:18;;;;;;;4.75;3.08;;;;;;;0.07;100.00;99289.13;15266110;19;20098;-62
2024/01/13 01:33:54;;;;;;;3.65;3.22;;;;;;;0.00;100.00;99287.72;15281032;19;20028;-57
2024/01/13 01:39:19;;;;;;;3.83;3.40;;;;;;;-0.01;100.00;99286.84;15278406;19;20046;-57
2024/01/13 01:44:44;;;;;;;3.97;3.50;;;;;;;-0.08;100.00;99280.13;15277511;19;20017;-58
2024/01/13 01:50:12;;;;;;;4.15;3.20;;;;;;;-0.08;100.00;99277.47;15282184;19;20043;-59
2024/01/13 01:55:37;;;;;;;3.30;3.00;;;;;;;-0.07;100.00;99273.91;15286465;19;20021;-59
2024/01/13 02:01:10;;;;;;;3.60;3.30;;;;;;;-0.07;100.00;99260.66;15285946;19;20024;-59
2024/01/13 02:06:37;;;;;;;3.63;3.17;;;;;;;-0.06;100.00;99258.84;15289465;19;20014;-57
2024/01/13 02:12:02;;;;;;;3.88;3.20;;;;;;;-0.04;100.00;99249.03;15293264;19;20074;-58
2024/01/13 02:17:27;;;;;;;4.07;3.10;;;;;;;-0.05;100.00;99249.97;15293038;19;20014;-59
2024/01/13 02:22:54;;;;;;;3.78;3.38;;;;;;;-0.07;100.00;99249.19;15297784;19;20018;-56
2024/01/13 02:28:19;;;;;;;4.13;3.60;;;;;;;-0.07;100.00;99250.06;15292117;19;20417;-55
2024/01/13 02:34:01;;;;;;;4.05;3.63;;;;;;;-0.09;100.00;99240.44;15294729;19;20014;-57
2024/01/13 02:39:28;;;;;;;3.60;3.15;;;;;;;-0.07;100.00;99231.50;15295296;19;20471;-59
2024/01/13 02:44:53;;;;;;;3.67;2.90;;;;;;;-0.04;100.00;99226.03;15294797;19;20078;-59
2024/01/13 02:50:19;;;;;;;4.93;3.28;;;;;;;-0.02;100.00;99207.44;15297124;19;20007;-59
2024/01/13 02:55:47;;;;;;;4.50;3.85;;;;;;;-0.10;100.00;99196.34;15295291;19;20014;-58
2024/01/13 03:01:12;;;;;;;4.25;3.85;;;;;;;-0.10;100.00;99191.91;15297486;19;20077;-57
2024/01/13 03:06:39;;;;;;;4.38;3.72;;;;;;;-0.11;100.00;99176.06;15291065;19;20038;-58
2024/01/13 03:12:08;;;;;;;4.32;3.40;;;;;;;-0.09;100.00;99177.75;15293596;19;20021;-59
2024/01/13 03:17:33;;;;;;;4.05;3.33;;;;;;;-0.01;100.00;99180.03;15285198;19;20039;-57
2024/01/13 03:22:59;;;;;;;4.20;3.80;;;;;;;0.04;100.00;99171.84;15295432;19;20016;-57
2024/01/13 03:28:26;;;;;;;4.15;3.75;;;;;;;0.05;100.00;99163.81;15287830;19;20087;-59
2024/01/13 03:33:59;;;;;;;5.45;3.58;;;;;;;0.06;100.00;99156.72;15289839;19;20019;-59
2024/01/13 03:39:23;;;;;;;3.65;3.35;;;;;;;0.02;100.00;99145.41;15292191;19;20017;-58
2024/01/13 03:44:50;;;;;;;3.92;3.20;;;;;;;0.03;100.00;99138.34;15287120;19;20086;-58
2024/01/13 03:50:17;;;;;;;3.70;3.22;;;;;;;0.03;100.00;99135.69;15288655;19;20024;-58
2024/01/13 03:55:43;;;;;;;3.45;3.10;;;;;;;0.04;100.00;99134.75;15294565;19;20089;-56
2024/01/13 04:01:10;;;;;;;3.47;3.17;;;;;;;0.02;100.00;99118.06;15290621;19;20022;-55
2024/01/13 04:06:40;;;;;;;3.25;2.80;;;;;;;0.05;100.00;99115.28;15289200;19;20023;-57
2024/01/13 04:12:05;;;;;;;3.40;2.60;;;;;;;0.06;100.00;99111.69;15291779;19;20014;-59
2024/01/13 04:17:33;;;;;;;3.25;2.70;;;;;;;0.04;100.00;99093.22;15284381;19;20014;-56
2024/01/13 04:22:58;;;;;;;2.75;2.47;;;;;;;0.03;100.00;99088.00;15286112;19;20378;-57
2024/01/13 04:28:29;;;;;;;2.72;2.40;;;;;;;0.01;100.00;99097.81;15281073;19;20518;-57
2024/01/13 04:33:56;;;;;;;2.70;2.30;;;;;;;0.04;100.00;99084.41;15287537;19;20025;-59
2024/01/13 04:39:21;;;;;;;2.85;2.50;;;;;;;0.01;100.00;99084.56;15281226;19;20025;-56
2024/01/13 04:44:46;;;;;;;4.15;2.58;;;;;;;0.01;100.00;99081.91;15288993;19;20066;-58
2024/01/13 04:50:14;;;;;;;3.13;2.40;;;;;;;0.00;100.00;99070.47;15288127;19;20019;-58
2024/01/13 04:55:39;;;;;;;2.95;2.50;;;;;;;-0.03;100.00;99060.03;15288932;19;20026;-58
2024/01/13 05:01:04;;;;;;;2.60;2.40;;;;;;;-0.07;100.00;99040.78;15284180;19;20269;-59
2024/01/13 05:06:32;;;;;;;3.17;2.47;;;;;;;-0.05;100.00;99038.91;15289676;19;20018;-56
2024/01/13 05:11:57;;;;;;;2.70;2.42;;;;;;;-0.10;100.00;99016.22;15314621;19;20010;-59
2024/01/13 05:17:22;;;;;;;3.13;2.50;;;;;;;-0.12;100.00;99023.41;15285426;19;20094;-59
2024/01/13 05:22:49;;;;;;;2.42;2.22;;;;;;;-0.09;100.00;99028.53;15281090;19;20481;-59
2024/01/13 05:28:20;;;;;;;2.58;2.38;;;;;;;-0.08;100.00;99032.91;15278207;19;20043;-59
2024/01/13 05:33:45;;;;;;;2.70;2.35;;;;;;;-0.07;100.00;99029.31;15281436;19;20026;-58
2024/01/13 05:39:13;;;;;;;2.58;2.38;;;;;;;-0.06;100.00;99023.09;15277167;19;20078;-59
2024/01/13 05:44:38;;;;;;;2.40;2.20;;;;;;;-0.08;100.00;99020.53;15285101;19;20089;-59
2024/01/13 05:50:02;;;;;;;2.70;2.50;;;;;;;-0.10;100.00;99011.81;15285004;19;20018;-57
2024/01/13 05:55:30;;;;;;;2.85;2.55;;;;;;;-0.07;100.00;99022.25;15271063;19;20013;-58
2024/01/13 06:00:56;;;;;;;3.05;2.42;;;;;;;-0.03;100.00;99018.47;15279594;19;20014;-56
2024/01/13 06:06:21;;;;;;;3.05;2.60;;;;;;;-0.01;100.00;99019.28;15279796;19;20014;-56
2024/01/13 06:11:51;;;;;;;3.03;2.47;;;;;;;-0.03;100.00;98994.66;15281748;19;20018;-55
2024/01/13 06:17:16;;;;;;;3.15;2.70;;;;;;;-0.04;100.00;99008.81;15280710;19;20044;-54
2024/01/13 06:22:40;;;;;;;3.40;3.10;;;;;;;-0.05;100.00;99009.75;15280065;19;20022;-56
2024/01/13 06:28:08;;;;;;;2.90;2.70;;;;;;;-0.06;100.00;98986.84;15270355;19;20019;-56
2024/01/13 06:33:32;;;;;;;3.42;2.90;;;;;;;-0.02;100.00;98987.56;15279104;19;20687;-59
2024/01/13 06:38:57;;;;;;;3.20;2.90;;;;;;;-0.02;100.00;98972.53;15274038;19;20082;-58
2024/01/13 06:44:24;;;;;;;2.55;2.35;;;;;;;-0.03;100.00;98970.81;15279000;19;20025;-57
2024/01/13 06:50:00;;;;;;;3.22;2.92;;;;;;;-0.05;100.00;98966.53;15279473;19;20018;-58
2024/01/13 06:55:25;;;;;;;3.33;3.03;;;;;;;-0.07;100.00;98966.63;15290291;19;20011;-57
2024/01/13 07:00:52;;;;;;;3.47;3.00;;;;;;;-0.08;100.00;98956.97;15292353;19;20039;-57
2024/01/13 07:06:17;;;;;;;3.10;2.80;;;;;;;-0.08;100.00;98958.75;15288916;19;20078;-56
2024/01/13 07:11:42;;;;;;;3.35;3.03;;;;;;;-0.11;100.00;98950.94;15292182;19;20026;-54
2024/01/13 07:17:09;;;;;;;3.38;3.08;;;;;;;-0.18;100.00;98950.44;15290356;19;20022;-56
2024/01/13 07:22:34;;;;;;;3.30;2.95;;;;;;;-0.17;100.00;98941.53;15291056;19;20377;-56
2024/01/13 07:28:05;;;;;;;3.03;2.70;;;;;;;-0.18;100.00;98924.81;15289081;19;20042;-59
2024/01/13 07:33:32;;;;;;;3.22;2.60;;;;;;;-0.19;100.00;98916.94;15278755;19;20017;-47
2024/01/13 07:38:57;;;;;;;3.10;2.80;;;;;;;-0.22;100.00;98922.41;15284221;19;20015;-51
2024/01/13 07:44:22;;;;;;;2.78;2.55;;;;;;;-0.22;100.00;98919.75;15286912;19;20918;-48
2024/01/13 07:49:49;;;;;;;3.30;3.00;;;;;;;-0.23;100.00;98899.50;15288421;19;20078;-49
2024/01/13 07:55:14;;;;;;;3.42;3.13;;;;;;;-0.26;100.00;98900.53;15285844;19;20109;-50
2024/01/13 08:00:38;;;;;;;3.42;2.90;;;;;;;-0.26;100.00;98891.72;15292140;19;20022;-49
2024/01/13 08:06:06;;;;;;;3.28;2.97;;;;;;;-0.27;100.00;98882.94;15280383;19;20014;-50
2024/01/13 08:11:30;;;;;;;3.65;3.03;;;;;;;-0.27;100.00;98887.34;15286971;19;20018;-48
2024/01/13 08:16:59;;;;;;;3.40;3.10;;;;;;;-0.26;100.00;98866.09;15281470;19;20475;-49
2024/01/13 08:22:26;;;;;;;3.15;2.85;;;;;;;-0.23;100.00;98843.88;15288467;19;20018;-51
2024/01/13 08:27:52;;;;;;;2.75;2.42;;;;;;;-0.21;100.00;98844.66;15288979;19;20032;-48
2024/01/13 08:33:16;;;;;;;2.88;2.58;;;;;;;-0.22;100.00;98848.25;15288526;19;20021;-48
2024/01/13 08:38:44;;;;;;;3.92;3.17;;;;;;;-0.20;100.00;98831.34;15282429;19;20027;-49
2024/01/13 08:44:09;;;;;;;3.47;2.88;;;;;;;-0.17;100.00;98830.31;15282429;19;20086;-48
2024/01/13 08:49:34;;;;;;;3.63;2.80;;;;;;;-0.16;100.00;98824.06;15282541;19;20014;-48
2024/01/13 08:55:01;;;;;;;3.63;3.05;;;;;;;-0.15;100.00;98817.84;15281685;19;20021;-47
2024/01/13 09:00:32;;;;;;;3.78;3.17;;;;;;;-0.14;100.00;98802.81;15287464;19;20355;-49
2024/01/13 09:05:57;;;;;;;3.40;3.10;;;;;;;-0.14;100.00;98795.72;15282390;19;20034;-51
2024/01/13 09:11:24;;;;;;;3.80;3.08;;;;;;;-0.11;100.00;98784.97;15280790;19;20021;-48
2024/01/13 09:17:00;;;;;;;2.90;2.70;;;;;;;-0.07;100.00;98773.28;15284181;19;20473;-52
2024/01/13 09:22:24;;;;;;;3.28;2.97;;;;;;;-0.07;100.00;98773.28;15285519;19;20707;-47
2024/01/13 09:27:51;;;;;;;3.70;2.92;;;;;;;-0.05;100.00;98752.81;15281467;19;20014;-49
2024/01/13 09:33:16;;;;;;;3.80;3.13;;;;;;;-0.03;100.00;98732.41;15282056;19;20018;-48
2024/01/13 09:38:41;;;;;;;4.07;3.20;;;;;;;-0.03;100.00;98719.16;15283157;19;20015;-49
2024/01/13 09:44:11;;;;;;;3.80;3.42;;;;;;;-0.01;100.00;98719.94;15276123;19;20486;-47
2024/01/13 09:49:36;;;;;;;4.30;3.67;;;;;;;0.02;100.00;98739.25;15257940;19;20014;-50
2024/01/13 09:55:07;;;;;;;4.07;3.58;;;;;;;0.04;100.00;98722.31;15276781;19;20010;-48
2024/01/13 10:00:36;;;;;;;4.93;3.88;;;;;;;0.05;100.00;98731.97;15284071;19;20014;-49
2024/01/13 10:06:02;;;;;;;4.90;3.80;;;;;;;0.06;100.00;98735.50;15277921;19;20045;-49
2024/01/13 10:11:27;;;;;;;4.43;3.53;;;;;;;0.07;100.00;98731.88;15283007;19;20070;-48
2024/01/13 10:16:55;;;;;;;4.97;4.13;;;;;;;0.08;100.00;98707.09;15274355;19;20027;-49
2024/01/13 10:22:20;;;;;;;5.15;4.18;;;;;;;0.09;100.00;98740.59;15279115;19;20081;-53
2024/01/13 10:27:45;;;;;;;4.78;4.30;;;;;;;0.07;100.00;98753.06;15292066;19;20035;-50
2024/01/13 10:33:14;;;;;;;5.00;4.25;;;;;;;0.05;100.00;98731.13;15037344;19;5001140;-47
2024/01/13 10:38:42;;;;;;;5.05;4.30;;;;;;;0.08;100.00;98707.97;15294368;19;20024;-48
2024/01/13 10:44:11;;;;;;;5.13;4.40;;;;;;;0.07;100.00;98694.78;15292872;19;20018;-49
2024/01/13 10:49:41;;;;;;;5.32;4.70;;;;;;;0.10;100.00;98678.72;15290781;19;20050;-49
2024/01/13 10:55:07;;;;;;;5.53;4.05;;;;;;;0.12;100.00;98647.72;15289221;19;20010;-51
2024/01/13 11:00:32;;;;;;;5.75;4.25;;;;;;;0.15;100.00;98660.78;15292114;19;20022;-49
2024/01/13 11:06:00;;;;;;;5.20;4.70;;;;;;;0.16;100.00;98636.00;15286972;19;20026;-48
2024/01/13 11:11:32;;;;;;;6.47;5.10;;;;;;;0.21;100.00;98662.22;15291623;19;20018;-49
2024/01/13 11:17:01;;;;;;;6.85;5.65;;;;;;;0.24;100.00;98648.75;15284827;19;20472;-50
2024/01/13 11:22:42;;;;;;;6.25;5.07;;;;;;;0.17;100.00;98627.09;15291086;19;20077;-50
2024/01/13 11:28:15;;;;;;;6.53;5.53;;;;;;;0.12;100.00;98632.66;15231765;19;20014;-48
2024/01/13 11:33:41;;;;;;;6.80;5.68;;;;;;;0.14;100.00;98653.78;15289020;19;20018;-51
2024/01/13 11:39:10;;;;;;;7.82;5.72;;;;;;;0.17;100.00;98644.78;15273504;19;20106;-49
2024/01/13 11:44:39;;;;;;;6.32;5.30;;;;;;;0.19;100.00;98657.00;15275524;19;20479;-49
2024/01/13 11:50:43;;;;;;;6.47;5.22;;;;;;;0.22;100.00;98646.22;15275710;19;20014;-48
2024/01/13 11:56:11;;;;;;;7.65;6.13;;;;;;;0.23;100.00;98629.38;15270794;19;20047;-51
2024/01/13 12:01:36;;;;;;;7.95;6.63;;;;;;;0.29;100.00;98618.41;15287056;19;20010;-52
2024/01/13 12:07:01;;;;;;;8.27;6.65;;;;;;;0.33;100.00;98600.53;15286410;19;20053;-48
2024/01/13 12:12:30;;;;;;;7.93;6.50;;;;;;;0.31;100.00;98594.47;15290397;19;20090;-48
2024/01/13 12:17:54;;;;;;;8.05;6.05;;;;;;;0.29;100.00;98580.47;15288445;19;20078;-47
2024/01/13 12:23:20;;;;;;;7.63;5.88;;;;;;;0.30;100.00;98558.31;15284063;19;20025;-49
2024/01/13 12:28:48;;;;;;;8.07;7.10;;;;;;;0.33;100.00;98562.56;15290585;19;20086;-52
2024/01/13 12:34:13;;;;;;;8.65;6.25;;;;;;;0.28;100.00;98570.81;15288028;19;20022;-47
2024/01/13 12:39:39;;;;;;;7.93;6.40;;;;;;;0.28;100.00;98550.47;15288715;19;20024;-49
2024/01/13 12:45:07;;;;;;;8.63;7.47;;;;;;;0.30;100.00;98537.97;15287650;19;20046;-49
2024/01/13 12:50:32;;;;;;;8.02;7.18;;;;;;;0.31;100.00;98528.22;15287463;19;20455;-48
2024/01/13 12:55:58;;;;;;;9.30;7.30;;;;;;;0.30;100.00;98524.72;15276373;19;20018;-49
2024/01/13 13:01:25;;;;;;;8.45;6.25;;;;;;;0.32;100.00;98523.75;15284827;19;20734;-47
2024/01/13 13:06:50;;;;;;;9.07;6.53;;;;;;;0.32;100.00;98499.91;15282954;19;20018;-49
2024/01/13 13:12:15;;;;;;;7.88;6.55;;;;;;;0.32;100.00;98494.63;15286014;19;20489;-50
2024/01/13 13:17:44;;;;;;;6.85;6.13;;;;;;;0.33;100.00;98472.47;15282220;19;20018;-47
2024/01/13 13:23:09;;;;;;;7.88;6.47;;;;;;;0.30;100.00;98474.34;15285265;19;20015;-47
2024/01/13 13:28:35;;;;;;;9.65;6.22;;;;;;;0.31;100.00;98485.81;15277952;19;20015;-49
2024/01/13 13:34:03;;;;;;;7.88;6.63;;;;;;;0.30;100.00;98479.66;15282430;19;20479;-47
2024/01/13 13:39:31;;;;;;;7.63;6.43;;;;;;;0.29;100.00;98470.00;15284067;19;20103;-50
2024/01/13 13:44:56;;;;;;;7.22;6.18;;;;;;;0.27;100.00;98471.91;15283112;19;20036;-49
2024/01/13 13:50:35;;;;;;;8.85;6.20;;;;;;;0.26;100.00;98462.25;15283563;19;20018;-46
2024/01/13 13:56:02;;;;;;;7.07;5.63;;;;;;;0.23;100.00;98441.25;15283435;19;20082;-47
2024/01/13 14:01:27;;;;;;;6.97;5.03;;;;;;;0.25;100.00;98434.06;15274173;19;20018;-49
2024/01/13 14:06:54;;;;;;;7.07;5.97;;;;;;;0.24;100.00;98413.81;15277997;19;20081;-48
2024/01/13 14:12:19;;;;;;;7.28;5.72;;;;;;;0.21;100.00;98390.16;15281850;19;20031;-48
2024/01/13 14:17:43;;;;;;;6.93;5.68;;;;;;;0.20;100.00;98383.16;15275997;19;20010;-48
2024/01/13 14:23:11;;;;;;;6.75;5.38;;;;;;;0.20;100.00;98384.97;15281601;19;20046;-49
2024/01/13 14:28:35;;;;;;;6.53;5.32;;;;;;;0.22;100.00;98370.66;15281302;19;20019;-47
2024/01/13 14:34:00;;;;;;;6.72;5.25;;;;;;;0.24;100.00;98383.78;15273523;19;20046;-48
2024/01/13 14:39:27;;;;;;;6.45;5.25;;;;;;;0.25;100.00;98386.38;15279918;19;20035;-51
2024/01/13 14:44:52;;;;;;;6.25;5.13;;;;;;;0.27;100.00;98363.28;15279564;19;20014;-48
2024/01/13 14:50:36;;;;;;;8.40;5.72;;;;;;;0.32;100.00;98372.72;15279833;19;20597;-48
2024/01/13 14:56:05;;;;;;;8.52;5.97;;;;;;;0.29;100.00;98377.25;15276286;19;20022;-48
2024/01/13 15:01:29;;;;;;;7.43;6.00;;;;;;;0.28;100.00;98386.19;15279867;19;20082;-50
2024/01/13 15:06:54;;;;;;;6.93;5.32;;;;;;;0.28;100.00;98367.63;15275855;19;20078;-47
2024/01/13 15:12:21;;;;;;;6.05;5.07;;;;;;;0.27;100.00;98349.16;15280236;19;20018;-47
2024/01/13 15:17:48;;;;;;;5.65;4.70;;;;;;;0.27;100.00;98351.81;15263175;19;20345;-49
2024/01/13 15:23:12;;;;;;;4.80;4.30;;;;;;;0.30;100.00;98344.50;15290464;19;20015;-46
2024/01/13 15:28:40;;;;;;;4.90;4.07;;;;;;;0.33;100.00;98339.97;15290842;19;20018;-49
2024/01/13 15:34:11;;;;;;;5.32;4.55;;;;;;;0.30;100.00;98348.97;15288514;19;20109;-47
2024/01/13 15:39:37;;;;;;;5.07;3.90;;;;;;;0.36;100.00;98339.78;15294741;19;20028;-48
2024/01/13 15:45:04;;;;;;;4.82;3.63;;;;;;;0.39;100.00;98342.25;15290395;19;20018;-50
2024/01/13 15:50:32;;;;;;;3.92;3.47;;;;;;;0.44;100.00;98327.75;15293945;19;20011;-47
2024/01/13 15:55:58;;;;;;;4.22;3.83;;;;;;;0.47;100.00;98337.28;15287150;19;20007;-49
2024/01/13 16:01:26;;;;;;;4.47;3.25;;;;;;;0.49;100.00;98335.38;15292652;19;20014;-50
2024/01/13 16:06:51;;;;;;;3.80;3.40;;;;;;;0.54;100.00;98316.53;15287929;19;20014;-50
2024/01/13 16:12:17;;;;;;;3.28;2.95;;;;;;;0.58;100.00;98329.47;15288116;19;20026;-48
2024/01/13 16:17:44;;;;;;;3.72;3.33;;;;;;;0.58;100.00;98305.63;15282340;19;20015;-47
2024/01/13 16:23:12;;;;;;;3.90;3.28;;;;;;;0.60;100.00;98318.75;15287017;19;20018;-48
2024/01/13 16:28:36;;;;;;;3.42;3.10;;;;;;;0.63;100.00;98301.81;15286471;19;20475;-49
2024/01/13 16:34:04;;;;;;;3.50;3.20;;;;;;;0.67;100.00;98298.00;15285045;19;20530;-48
2024/01/13 16:39:28;;;;;;;3.50;3.20;;;;;;;0.70;100.00;98285.41;15281304;19;20015;-48
2024/01/13 16:44:53;;;;;;;3.58;2.80;;;;;;;0.76;100.00;98260.28;15280717;19;20023;-50
2024/01/13 16:50:20;;;;;;;3.50;3.20;;;;;;;0.82;100.00;98270.47;15286587;19;20483;-51
2024/01/13 16:55:47;;;;;;;3.13;2.83;;;;;;;0.85;100.00;98256.16;15284325;19;20023;-46
2024/01/13 17:01:11;;;;;;;3.28;2.97;;;;;;;0.88;100.00;98275.34;15285072;19;20060;-47
2024/01/13 17:06:39;;;;;;;3.10;2.80;;;;;;;0.95;100.00;98261.69;15286783;19;20042;-47
2024/01/13 17:12:05;;;;;;;3.40;3.10;;;;;;;0.99;100.00;98255.22;15282616;19;20466;-46
2024/01/13 17:17:32;;;;;;;2.80;2.60;;;;;;;1.06;100.00;98254.66;15285682;19;20046;-47
2024/01/13 17:23:00;;;;;;;2.53;2.33;;;;;;;1.11;100.00;98261.47;15283395;19;20018;-48
2024/01/13 17:28:29;;;;;;;3.53;3.10;;;;;;;1.16;100.00;98259.38;15281670;19;20490;-48
2024/01/13 17:34:00;;;;;;;2.67;2.47;;;;;;;1.16;100.00;98244.28;15283793;19;20006;-49
2024/01/13 17:39:31;;;;;;;3.65;3.35;;;;;;;1.18;100.00;98231.75;15278548;19;20006;-46
2024/01/13 17:44:58;;;;;;;3.47;3.17;;;;;;;1.20;100.00;98236.94;15264324;19;20473;-48
2024/01/13 17:50:23;;;;;;;3.85;3.50;;;;;;;1.18;100.00;98237.06;15281502;19;20022;-49
2024/01/13 17:55:51;;;;;;;3.50;3.20;;;;;;;1.17;100.00;98235.38;15283078;19;20039;-48
2024/01/13 18:01:19;;;;;;;3.33;3.03;;;;;;;1.23;100.00;98229.63;15286200;19;20310;-49
2024/01/13 18:06:43;;;;;;;3.80;3.45;;;;;;;1.19;100.00;98224.63;15284313;19;20090;-48
2024/01/13 18:12:12;;;;;;;3.38;3.08;;;;;;;1.13;100.00;98212.66;15284063;19;20022;-46
2024/01/13 18:17:36;;;;;;;4.13;3.75;;;;;;;1.12;100.00;98200.34;15279256;19;20042;-47
2024/01/13 18:23:01;;;;;;;3.72;3.42;;;;;;;1.12;100.00;98194.19;15287559;19;20641;-49
2024/01/13 18:28:29;;;;;;;4.07;3.67;;;;;;;1.10;100.00;98186.34;15288332;19;20031;-47
2024/01/13 18:34:00;;;;;;;3.92;3.53;;;;;;;1.10;100.00;98181.03;15285591;19;20026;-47
2024/01/13 18:39:25;;;;;;;4.38;3.97;;;;;;;1.11;100.00;98174.78;15280835;19;20018;-48
2024/01/13 18:44:53;;;;;;;4.20;3.90;;;;;;;1.13;100.00;98167.53;15282877;19;20037;-47
2024/01/13 18:50:19;;;;;;;4.13;3.70;;;;;;;1.13;100.00;98156.09;15287072;19;20519;-47
2024/01/13 18:55:43;;;;;;;3.92;3.60;;;;;;;1.10;100.00;98149.22;15297544;19;20006;-47
2024/01/13 19:01:12;;;;;;;4.30;3.90;;;;;;;1.05;100.00;98143.38;15299526;19;20102;-46
2024/01/13 19:06:36;;;;;;;3.67;3.38;;;;;;;1.01;100.00;98150.69;15300216;19;20010;-47
2024/01/13 19:12:02;;;;;;;3.75;3.45;;;;;;;1.03;100.00;98147.94;15299468;19;20015;-48
2024/01/13 19:17:33;;;;;;;3.35;3.05;;;;;;;1.04;100.00;98134.56;15292509;19;20093;-47
2024/01/13 19:23:01;;;;;;;3.88;3.47;;;;;;;1.05;100.00;98153.97;15292277;19;20029;-48
2024/01/13 19:28:25;;;;;;;3.42;3.13;;;;;;;1.05;100.00;98136.28;15297143;19;20411;-46
2024/01/13 19:34:01;;;;;;;2.97;2.60;;;;;;;1.07;100.00;98129.03;15294350;19;20037;-46
2024/01/13 19:39:26;;;;;;;2.95;2.72;;;;;;;1.10;100.00;98117.38;15293503;19;20038;-48
2024/01/13 19:44:51;;;;;;;3.50;3.10;;;;;;;1.11;100.00;98124.38;15292036;19;20019;-47
2024/01/13 19:50:20;;;;;;;2.83;2.63;;;;;;;1.10;100.00;98114.72;15294347;19;20619;-45
2024/01/13 19:55:44;;;;;;;2.92;2.72;;;;;;;1.09;100.00;98126.28;15283830;19;20471;-46
2024/01/13 20:01:09;;;;;;;2.50;2.30;;;;;;;1.14;100.00;98112.69;15293038;19;20014;-47
2024/01/13 20:06:37;;;;;;;2.97;2.67;;;;;;;1.15;100.00;98119.69;15293969;19;20026;-45
2024/01/13 20:12:04;;;;;;;2.60;2.40;;;;;;;1.15;100.00;98101.94;15293954;19;20031;-46
2024/01/13 20:17:29;;;;;;;2.45;2.25;;;;;;;1.17;100.00;98102.69;15294287;19;20095;-48
2024/01/13 20:22:58;;;;;;;2.70;2.40;;;;;;;1.14;100.00;98089.66;15295171;19;20078;-47
2024/01/13 20:28:22;;;;;;;2.60;2.40;;;;;;;1.13;100.00;98074.69;15285785;19;20025;-47
2024/01/13 20:33:48;;;;;;;2.83;2.45;;;;;;;1.09;100.00;98070.56;15289968;19;20078;-49
2024/01/13 20:39:16;;;;;;;2.65;2.45;;;;;;;1.08;100.00;98064.41;15288667;19;20029;-48
2024/01/13 20:44:41;;;;;;;3.10;2.80;;;;;;;1.07;100.00;98059.22;15290846;19;20018;-48
2024/01/13 20:50:05;;;;;;;2.90;2.60;;;;;;;1.05;100.00;98063.78;15292529;19;20070;-45
2024/01/13 20:55:34;;;;;;;2.60;2.40;;;;;;;1.07;100.00;98048.59;15288741;19;20014;-48
2024/01/13 21:00:59;;;;;;;3.45;2.50;;;;;;;1.08;100.00;98063.56;15286768;19;20019;-45
2024/01/13 21:06:24;;;;;;;2.53;2.33;;;;;;;1.10;100.00;98051.03;15287454;19;20018;-46
2024/01/13 21:11:51;;;;;;;2.58;2.22;;;;;;;1.14;100.00;98055.16;15291045;19;20027;-46
2024/01/13 21:17:16;;;;;;;3.05;2.75;;;;;;;1.18;100.00;98048.69;15291224;19;20082;-45
2024/01/13 21:22:41;;;;;;;2.50;2.30;;;;;;;1.26;100.00;98039.31;15290571;19;20026;-46
2024/01/13 21:28:15;;;;;;;2.40;2.20;;;;;;;1.26;100.00;98053.44;15286434;19;20021;-46
2024/01/13 21:33:42;;;;;;;2.50;2.30;;;;;;;1.26;100.00;98034.84;15287878;19;20022;-45
2024/01/13 21:39:09;;;;;;;2.30;2.10;;;;;;;1.23;100.00;98030.59;15285534;19;20040;-49
2024/01/13 21:44:37;;;;;;;2.30;2.10;;;;;;;1.25;100.00;98029.63;15286407;19;20756;-46
2024/01/13 21:50:01;;;;;;;2.25;2.05;;;;;;;1.26;100.00;98032.19;15289791;19;20468;-46
2024/01/13 21:55:26;;;;;;;2.80;2.10;;;;;;;1.27;100.00;98028.59;15285029;19;20015;-49
2024/01/13 22:00:53;;;;;;;2.40;2.20;;;;;;;1.28;100.00;98013.50;15281527;19;20018;-49
2024/01/13 22:06:18;;;;;;;2.28;2.08;;;;;;;1.27;100.00;98009.16;15282910;19;20014;-48
2024/01/13 22:11:42;;;;;;;2.88;2.13;;;;;;;1.23;100.00;98008.53;15288042;19;20429;-46
2024/01/13 22:17:12;;;;;;;2.50;2.30;;;;;;;1.19;100.00;97992.00;15287642;19;20017;-48
2024/01/13 22:22:36;;;;;;;2.60;2.40;;;;;;;1.17;100.00;97993.91;15291893;19;20102;-47
2024/01/13 22:28:02;;;;;;;2.28;2.08;;;;;;;1.13;100.00;97995.09;15297439;19;20033;-46
2024/01/13 22:33:30;;;;;;;2.17;1.98;;;;;;;1.19;100.00;97999.09;15290682;19;20648;-48
2024/01/13 22:38:56;;;;;;;2.60;2.40;;;;;;;1.21;100.00;97974.16;15297042;19;20039;-49
2024/01/13 22:44:21;;;;;;;2.90;2.70;;;;;;;1.17;100.00;97985.13;15297466;19;20025;-48
2024/01/13 22:49:49;;;;;;;2.92;2.72;;;;;;;1.18;100.00;97970.88;15298307;19;20695;-48
2024/01/13 22:55:14;;;;;;;2.60;2.40;;;;;;;1.17;100.00;97969.19;15284595;19;20241;-47
2024/01/13 23:00:39;;;;;;;2.90;2.70;;;;;;;1.18;100.00;97963.78;15296554;19;20018;-47
2024/01/13 23:06:06;;;;;;;2.70;2.50;;;;;;;1.21;100.00;97954.72;15285480;19;20042;-47
2024/01/13 23:11:31;;;;;;;2.20;2.00;;;;;;;1.20;100.00;97948.59;15298302;19;20078;-47
2024/01/13 23:16:55;;;;;;;3.42;2.70;;;;;;;1.24;100.00;97949.19;15293823;19;20828;-48
2024/01/13 23:22:23;;;;;;;2.45;2.25;;;;;;;1.24;100.00;97938.59;15298518;19;20074;-50
2024/01/13 23:27:47;;;;;;;2.90;2.70;;;;;;;1.22;100.00;97933.41;15299443;19;20081;-48
2024/01/13 23:33:12;;;;;;;3.22;2.92;;;;;;;1.22;100.00;97920.13;15297287;19;20019;-49
2024/01/13 23:38:46;;;;;;;3.15;2.85;;;;;;;1.22;100.00;97916.63;15291597;19;20019;-47
2024/01/13 23:44:11;;;;;;;3.05;2.78;;;;;;;1.17;100.00;97910.81;15293651;19;20352;-49
2024/01/13 23:49:35;;;;;;;3.08;2.85;;;;;;;1.15;100.00;97896.81;15296017;19;20014;-47
2024/01/13 23:55:05;;;;;;;2.80;2.60;;;;;;;1.15;100.00;97897.66;15287810;19;20576;-47
